sensor_id;sensor_type;location;lat;lon;timestamp;temperature;humidity
17591;DHT22;8914;50.070;8.226;2022-09-09T17:13:57;19.10;99.90
17591;DHT22;8914;50.070;8.226;2022-09-09T17:16:30;20.40;99.90
17591;DHT22;8914;50.070;8.226;2022-09-09T17:19:02;20.10;99.90
17591;DHT22;8914;50.070;8.226;2022-09-09T17:21:33;20.00;99.90
17591;DHT22;8914;50.070;8.226;2022-09-09T17:24:23;19.90;99.90
17591;DHT22;8914;50.070;8.226;2022-09-09T17:26:57;19.90;99.90
17591;DHT22;8914;50.070;8.226;2022-09-09T17:29:30;19.80;99.90
17591;DHT22;8914;50.070;8.226;2022-09-09T17:32:03;19.80;99.90
17591;DHT22;8914;50.070;8.226;2022-09-09T17:34:35;19.80;99.90
17591;DHT22;8914;50.070;8.226;2022-09-09T17:37:06;19.70;99.90
17591;DHT22;8914;50.070;8.226;2022-09-09T17:39:37;19.60;99.90
17591;DHT22;8914;50.070;8.226;2022-09-09T17:42:07;19.50;99.90
17591;DHT22;8914;50.070;8.226;2022-09-09T17:44:40;19.50;99.90
17591;DHT22;8914;50.070;8.226;2022-09-09T17:47:11;19.50;99.90
17591;DHT22;8914;50.070;8.226;2022-09-09T17:49:41;19.40;99.90
17591;DHT22;8914;50.070;8.226;2022-09-09T17:52:12;19.30;99.90
17591;DHT22;8914;50.070;8.226;2022-09-09T17:54:43;19.20;99.90
17591;DHT22;8914;50.070;8.226;2022-09-09T17:57:14;19.10;99.90
17591;DHT22;8914;50.070;8.226;2022-09-09T17:59:50;19.00;99.90
17591;DHT22;8914;50.070;8.226;2022-09-09T18:02:21;18.90;99.90
17591;DHT22;8914;50.070;8.226;2022-09-09T18:04:53;18.80;99.90
17591;DHT22;8914;50.070;8.226;2022-09-09T18:07:24;18.80;99.90
17591;DHT22;8914;50.070;8.226;2022-09-09T18:09:55;18.60;99.90
17591;DHT22;8914;50.070;8.226;2022-09-09T18:12:27;18.60;99.90
17591;DHT22;8914;50.070;8.226;2022-09-09T18:15:01;18.50;99.90
17591;DHT22;8914;50.070;8.226;2022-09-09T18:17:33;18.50;99.90
17591;DHT22;8914;50.070;8.226;2022-09-09T18:20:06;18.50;99.90
17591;DHT22;8914;50.070;8.226;2022-09-09T18:22:37;18.50;99.90
17591;DHT22;8914;50.070;8.226;2022-09-09T18:25:09;18.50;99.90
17591;DHT22;8914;50.070;8.226;2022-09-09T18:27:40;18.50;99.90
17591;DHT22;8914;50.070;8.226;2022-09-09T18:30:13;18.50;99.90
17591;DHT22;8914;50.070;8.226;2022-09-09T18:32:44;18.40;99.90
17591;DHT22;8914;50.070;8.226;2022-09-09T18:35:15;18.40;99.90
17591;DHT22;8914;50.070;8.226;2022-09-09T18:37:46;18.30;99.90
17591;DHT22;8914;50.070;8.226;2022-09-09T18:40:19;18.30;99.90
17591;DHT22;8914;50.070;8.226;2022-09-09T18:42:50;18.20;99.90
17591;DHT22;8914;50.070;8.226;2022-09-09T18:45:25;18.20;99.90
17591;DHT22;8914;50.070;8.226;2022-09-09T18:47:57;18.20;99.90
17591;DHT22;8914;50.070;8.226;2022-09-09T18:50:28;18.20;99.90
17591;DHT22;8914;50.070;8.226;2022-09-09T18:52:59;18.10;99.90
17591;DHT22;8914;50.070;8.226;2022-09-09T18:55:30;18.00;99.90
17591;DHT22;8914;50.070;8.226;2022-09-09T18:58:00;17.80;99.90
17591;DHT22;8914;50.070;8.226;2022-09-09T19:00:33;17.70;99.90
17591;DHT22;8914;50.070;8.226;2022-09-09T19:03:03;17.60;99.90
17591;DHT22;8914;50.070;8.226;2022-09-09T19:05:34;17.50;99.90
17591;DHT22;8914;50.070;8.226;2022-09-09T19:08:04;17.50;99.90
17591;DHT22;8914;50.070;8.226;2022-09-09T19:10:35;17.30;99.90
17591;DHT22;8914;50.070;8.226;2022-09-09T19:13:06;17.40;99.90
17591;DHT22;8914;50.070;8.226;2022-09-09T19:15:39;17.30;99.90
17591;DHT22;8914;50.070;8.226;2022-09-09T19:18:09;17.20;99.90
17591;DHT22;8914;50.070;8.226;2022-09-09T19:20:40;17.20;99.90
17591;DHT22;8914;50.070;8.226;2022-09-09T19:23:12;17.20;99.90
17591;DHT22;8914;50.070;8.226;2022-09-09T19:25:42;17.10;99.90
17591;DHT22;8914;50.070;8.226;2022-09-09T19:28:13;17.00;99.90
17591;DHT22;8914;50.070;8.226;2022-09-09T19:30:46;17.00;99.90
17591;DHT22;8914;50.070;8.226;2022-09-09T19:33:16;17.00;99.90
17591;DHT22;8914;50.070;8.226;2022-09-09T19:35:56;16.90;99.90
17591;DHT22;8914;50.070;8.226;2022-09-09T19:38:29;17.00;99.90
17591;DHT22;8914;50.070;8.226;2022-09-09T19:41:02;17.00;99.90
17591;DHT22;8914;50.070;8.226;2022-09-09T19:43:33;16.90;99.90
17591;DHT22;8914;50.070;8.226;2022-09-09T19:46:09;16.90;99.90
17591;DHT22;8914;50.070;8.226;2022-09-09T19:48:41;16.90;99.90
17591;DHT22;8914;50.070;8.226;2022-09-09T19:51:13;16.90;99.90
17591;DHT22;8914;50.070;8.226;2022-09-09T19:53:46;16.90;99.90
17591;DHT22;8914;50.070;8.226;2022-09-09T19:56:19;16.90;99.90
17591;DHT22;8914;50.070;8.226;2022-09-09T19:58:51;16.90;99.90
17591;DHT22;8914;50.070;8.226;2022-09-09T20:01:27;16.90;99.90
17591;DHT22;8914;50.070;8.226;2022-09-09T20:04:05;16.90;99.90
17591;DHT22;8914;50.070;8.226;2022-09-09T20:06:37;16.80;99.90
17591;DHT22;8914;50.070;8.226;2022-09-09T20:09:11;16.80;99.90
17591;DHT22;8914;50.070;8.226;2022-09-09T20:11:43;16.80;99.90
17591;DHT22;8914;50.070;8.226;2022-09-09T20:14:15;16.80;99.90
17591;DHT22;8914;50.070;8.226;2022-09-09T20:16:49;16.90;99.90
17591;DHT22;8914;50.070;8.226;2022-09-09T20:19:20;16.80;99.90
17591;DHT22;8914;50.070;8.226;2022-09-09T20:21:52;16.70;99.90
17591;DHT22;8914;50.070;8.226;2022-09-09T20:24:23;17.00;99.90
17591;DHT22;8914;50.070;8.226;2022-09-09T20:26:55;16.80;99.90
17591;DHT22;8914;50.070;8.226;2022-09-09T20:29:25;16.70;99.90
17591;DHT22;8914;50.070;8.226;2022-09-09T20:31:59;16.70;99.90
17591;DHT22;8914;50.070;8.226;2022-09-09T20:34:29;16.70;99.90
17591;DHT22;8914;50.070;8.226;2022-09-09T20:37:00;16.70;99.90
17591;DHT22;8914;50.070;8.226;2022-09-09T20:39:32;16.70;99.90
17591;DHT22;8914;50.070;8.226;2022-09-09T20:42:03;16.60;99.90
17591;DHT22;8914;50.070;8.226;2022-09-09T20:44:35;16.60;99.90
17591;DHT22;8914;50.070;8.226;2022-09-09T20:47:08;16.50;99.90
17591;DHT22;8914;50.070;8.226;2022-09-09T20:49:39;16.50;99.90
17591;DHT22;8914;50.070;8.226;2022-09-09T20:52:10;16.50;99.90
17591;DHT22;8914;50.070;8.226;2022-09-09T20:54:41;16.50;99.90
17591;DHT22;8914;50.070;8.226;2022-09-09T20:57:13;16.50;99.90
17591;DHT22;8914;50.070;8.226;2022-09-09T20:59:48;16.60;99.90
17591;DHT22;8914;50.070;8.226;2022-09-09T21:02:21;16.50;99.90
17591;DHT22;8914;50.070;8.226;2022-09-09T21:04:52;16.50;99.90
17591;DHT22;8914;50.070;8.226;2022-09-09T21:07:23;16.60;99.90
17591;DHT22;8914;50.070;8.226;2022-09-09T21:09:54;16.60;99.90
17591;DHT22;8914;50.070;8.226;2022-09-09T21:12:26;16.60;99.90
17591;DHT22;8914;50.070;8.226;2022-09-09T21:14:58;16.60;99.90
17591;DHT22;8914;50.070;8.226;2022-09-09T21:17:33;16.60;99.90
17591;DHT22;8914;50.070;8.226;2022-09-09T21:20:05;16.60;99.90
17591;DHT22;8914;50.070;8.226;2022-09-09T21:22:36;16.60;99.90
17591;DHT22;8914;50.070;8.226;2022-09-09T21:25:07;16.60;99.90
17591;DHT22;8914;50.070;8.226;2022-09-09T21:27:38;16.60;99.90
17591;DHT22;8914;50.070;8.226;2022-09-09T21:30:10;16.60;99.90
17591;DHT22;8914;50.070;8.226;2022-09-09T21:32:43;16.60;99.90
17591;DHT22;8914;50.070;8.226;2022-09-09T21:35:14;16.60;99.90
17591;DHT22;8914;50.070;8.226;2022-09-09T21:37:45;15.20;99.90
17591;DHT22;8914;50.070;8.226;2022-09-09T21:40:16;16.60;99.90
17591;DHT22;8914;50.070;8.226;2022-09-09T21:42:46;16.60;99.90
17591;DHT22;8914;50.070;8.226;2022-09-09T21:45:16;16.60;99.90
17591;DHT22;8914;50.070;8.226;2022-09-09T21:47:50;16.60;99.90
17591;DHT22;8914;50.070;8.226;2022-09-09T21:50:20;16.60;99.90
17591;DHT22;8914;50.070;8.226;2022-09-09T21:52:54;16.60;99.90
17591;DHT22;8914;50.070;8.226;2022-09-09T21:55:24;16.60;99.90
17591;DHT22;8914;50.070;8.226;2022-09-09T21:57:55;16.60;99.90
17591;DHT22;8914;50.070;8.226;2022-09-09T22:00:26;16.50;99.90
17591;DHT22;8914;50.070;8.226;2022-09-09T22:03:00;16.50;99.90
17591;DHT22;8914;50.070;8.226;2022-09-09T22:05:31;16.60;99.90
17591;DHT22;8914;50.070;8.226;2022-09-09T22:08:01;16.60;99.90
17591;DHT22;8914;50.070;8.226;2022-09-09T22:10:33;16.60;99.90
17591;DHT22;8914;50.070;8.226;2022-09-09T22:13:04;16.60;99.90
17591;DHT22;8914;50.070;8.226;2022-09-09T22:15:34;16.60;99.90
17591;DHT22;8914;50.070;8.226;2022-09-09T22:18:07;16.60;99.90
17591;DHT22;8914;50.070;8.226;2022-09-09T22:20:40;16.60;99.90
17591;DHT22;8914;50.070;8.226;2022-09-09T22:23:11;16.60;99.90
17591;DHT22;8914;50.070;8.226;2022-09-09T22:25:41;16.60;99.90
17591;DHT22;8914;50.070;8.226;2022-09-09T22:28:12;16.60;99.90
17591;DHT22;8914;50.070;8.226;2022-09-09T22:30:43;16.60;99.90
17591;DHT22;8914;50.070;8.226;2022-09-09T22:33:16;16.60;99.90
17591;DHT22;8914;50.070;8.226;2022-09-09T22:35:47;16.60;99.90
17591;DHT22;8914;50.070;8.226;2022-09-09T22:38:18;16.60;99.90
17591;DHT22;8914;50.070;8.226;2022-09-09T22:40:49;16.60;99.90
17591;DHT22;8914;50.070;8.226;2022-09-09T22:43:20;16.60;99.90
17591;DHT22;8914;50.070;8.226;2022-09-09T22:45:51;16.50;99.90
17591;DHT22;8914;50.070;8.226;2022-09-09T22:48:23;16.50;99.90
17591;DHT22;8914;50.070;8.226;2022-09-09T22:51:00;16.50;99.90
17591;DHT22;8914;50.070;8.226;2022-09-09T22:53:31;16.50;99.90
17591;DHT22;8914;50.070;8.226;2022-09-09T22:56:03;16.50;99.90
17591;DHT22;8914;50.070;8.226;2022-09-09T22:58:35;16.50;99.90
17591;DHT22;8914;50.070;8.226;2022-09-09T23:01:10;16.50;99.90
17591;DHT22;8914;50.070;8.226;2022-09-09T23:03:44;16.50;99.90
17591;DHT22;8914;50.070;8.226;2022-09-09T23:06:16;16.50;99.90
17591;DHT22;8914;50.070;8.226;2022-09-09T23:08:50;16.40;99.90
17591;DHT22;8914;50.070;8.226;2022-09-09T23:11:22;16.30;99.90
17591;DHT22;8914;50.070;8.226;2022-09-09T23:13:54;16.30;99.90
17591;DHT22;8914;50.070;8.226;2022-09-09T23:16:27;16.30;99.90
17591;DHT22;8914;50.070;8.226;2022-09-09T23:19:01;16.40;99.90
17591;DHT22;8914;50.070;8.226;2022-09-09T23:21:31;16.40;99.90
17591;DHT22;8914;50.070;8.226;2022-09-09T23:24:02;16.30;99.90
17591;DHT22;8914;50.070;8.226;2022-09-09T23:26:32;16.30;99.90
17591;DHT22;8914;50.070;8.226;2022-09-09T23:29:02;16.30;99.90
17591;DHT22;8914;50.070;8.226;2022-09-09T23:31:33;16.40;99.90
17591;DHT22;8914;50.070;8.226;2022-09-09T23:34:07;16.40;99.90
17591;DHT22;8914;50.070;8.226;2022-09-09T23:36:36;16.50;99.90
17591;DHT22;8914;50.070;8.226;2022-09-09T23:39:07;16.50;99.90
17591;DHT22;8914;50.070;8.226;2022-09-09T23:41:37;16.50;99.90
17591;DHT22;8914;50.070;8.226;2022-09-09T23:44:07;16.60;99.90
17591;DHT22;8914;50.070;8.226;2022-09-09T23:46:38;16.60;99.90
17591;DHT22;8914;50.070;8.226;2022-09-09T23:49:10;16.70;99.90
17591;DHT22;8914;50.070;8.226;2022-09-09T23:51:40;16.70;99.90
17591;DHT22;8914;50.070;8.226;2022-09-09T23:54:10;16.70;99.90
17591;DHT22;8914;50.070;8.226;2022-09-09T23:56:40;16.70;99.90
17591;DHT22;8914;50.070;8.226;2022-09-09T23:59:10;16.70;99.90
